Aberdeen Gardens, Washington
Current Conditions -  °F | °C
As of 1:53 AM on Wednesday 26 Nov 2014 (Local Time) from KHQM Reporting Station
Light Rain Light Rain  
Wind Chill: 12°   Ceiling: 700
Heat Index: 12°   Visibility: 2mi
Dew Point: 12°   Wind: 15mph
Humidity: 100%   Direction: 200°SSW
Pressure: 30.19"   Gusts: NA
Location:  47.1445°N, 123.771°W
Report Text: KHQM 260953Z AUTO 20013KT 2SM -RA BR BKN007 OVC012 12/12 A3019 RMK AO2 RAB25 SLP227 P0001 T01220122
Loading
Personal Weather Stations






























Interactive Weather Map New forecast layout! Learn more

10-Day Weather Forecast

Advertisements
Track Severe Weather on mobile